Time;durP1;ratioP1;P1;durP2;ratioP2;P2;SDS_P1;SDS_P2;PMS_P1;PMS_P2;Temp;Humidity;BMP_temperature;BMP_pressure;BME280_temperature;BME280_humidity;BME280_pressure;Samples;Min_cycle;Max_cycle;Signal;HPM_P1;HPM_P2
2022/01/25 00:10:39;;;;;;;11.90;7.38;;;;;;;1.65;100.00;100261.22;4184927;28;20068;-71
2022/01/25 00:24:24;;;;;;;9.63;6.28;;;;;;;1.72;100.00;100254.69;4185140;28;20174;-71
2022/01/25 00:26:32;;;;;;;9.63;5.50;;;;;;;1.67;100.00;100241.88;4186056;28;20051;-71
2022/01/25 00:30:45;;;;;;;11.82;7.30;;;;;;;1.69;100.00;100248.69;4185880;28;20047;-71
2022/01/25 00:32:46;;;;;;;8.65;6.00;;;;;;;1.68;100.00;100238.88;4185655;28;20131;-71
2022/01/25 00:34:46;;;;;;;9.00;6.35;;;;;;;1.69;100.00;100243.22;4187100;28;20278;-71
2022/01/25 00:36:46;;;;;;;10.98;6.18;;;;;;;1.65;100.00;100244.88;4186576;28;20090;-71
2022/01/25 00:38:48;;;;;;;8.90;5.95;;;;;;;1.71;100.00;100250.31;4185887;28;20508;-71
2022/01/25 00:40:49;;;;;;;7.68;5.35;;;;;;;1.68;100.00;100235.31;4186109;28;20343;-71
2022/01/25 00:42:49;;;;;;;7.70;5.40;;;;;;;1.69;100.00;100239.69;4185972;28;20051;-71
2022/01/25 00:44:49;;;;;;;11.15;5.97;;;;;;;1.68;100.00;100238.06;4186455;28;20040;-71
2022/01/25 00:46:50;;;;;;;8.63;5.80;;;;;;;1.67;100.00;100230.97;4188687;28;20443;-71
2022/01/25 00:48:54;;;;;;;8.80;5.40;;;;;;;1.65;100.00;100228.50;4189021;28;20048;-71
2022/01/25 00:51:03;;;;;;;10.50;6.45;;;;;;;1.65;100.00;100241.31;4189020;28;20048;-71
2022/01/25 00:55:05;;;;;;;11.45;5.82;;;;;;;1.56;100.00;100235.59;4189206;28;20527;-71
2022/01/25 00:57:06;;;;;;;8.13;5.78;;;;;;;1.59;100.00;100239.72;4187977;28;20044;-71
2022/01/25 00:59:10;;;;;;;8.13;5.28;;;;;;;1.57;100.00;100233.69;4188988;28;20140;-71
2022/01/25 01:01:10;;;;;;;7.70;5.38;;;;;;;1.54;100.00;100228.81;4189252;28;20067;-71
2022/01/25 01:03:10;;;;;;;7.53;5.30;;;;;;;1.55;100.00;100231.25;4188822;28;20040;-71
2022/01/25 01:05:11;;;;;;;6.75;4.93;;;;;;;1.56;100.00;100223.88;4188830;28;20040;-71
2022/01/25 01:07:14;;;;;;;9.10;5.55;;;;;;;1.53;100.00;100225.25;4188320;28;20075;-71
2022/01/25 01:09:17;;;;;;;8.35;5.18;;;;;;;1.53;100.00;100216.25;4188750;28;20493;-71
2022/01/25 01:11:25;;;;;;;7.88;5.40;;;;;;;1.52;100.00;100217.34;4188676;28;20443;-71
2022/01/25 01:15:53;;;;;;;8.23;5.63;;;;;;;1.51;100.00;100224.72;4189228;28;20101;-71
2022/01/25 01:29:49;;;;;;;7.78;4.80;;;;;;;1.55;100.00;100214.88;4188311;28;20403;-71
2022/01/25 01:43:13;;;;;;;8.52;5.90;;;;;;;1.49;100.00;100205.09;4188322;28;20049;-71
2022/01/25 01:45:36;;;;;;;8.05;5.22;;;;;;;1.50;100.00;100208.63;4188737;28;20052;-71
2022/01/25 01:47:48;;;;;;;9.85;6.20;;;;;;;1.49;100.00;100210.56;4187546;28;20358;-71
2022/01/25 01:49:48;;;;;;;7.88;5.55;;;;;;;1.50;100.00;100206.72;4188407;28;20404;-71
2022/01/25 01:51:49;;;;;;;8.10;5.45;;;;;;;1.49;100.00;100218.72;4188242;28;20345;-71
2022/01/25 01:53:50;;;;;;;9.85;5.68;;;;;;;1.48;100.00;100213.53;4188326;28;20964;-71
2022/01/25 01:55:51;;;;;;;7.03;4.93;;;;;;;1.46;100.00;100213.81;4187836;28;20048;-71
2022/01/25 01:57:52;;;;;;;7.28;5.55;;;;;;;1.46;100.00;100208.34;4186596;28;20102;-71
2022/01/25 01:59:53;;;;;;;9.23;6.03;;;;;;;1.45;100.00;100205.91;4188445;28;20071;-71
2022/01/25 02:01:53;;;;;;;11.90;5.82;;;;;;;1.49;100.00;100210.56;4188004;28;20040;-71
2022/01/25 02:03:55;;;;;;;9.13;6.13;;;;;;;1.44;100.00;100205.09;4188564;28;20423;-71
2022/01/25 02:05:56;;;;;;;10.73;5.93;;;;;;;1.45;100.00;100201.25;4187901;28;20044;-71
2022/01/25 02:07:56;;;;;;;9.57;6.28;;;;;;;1.43;100.00;100202.66;4187313;28;20204;-71
2022/01/25 02:09:56;;;;;;;11.57;6.90;;;;;;;1.42;100.00;100204.56;4188063;28;20048;-71
2022/01/25 02:11:57;;;;;;;9.82;5.75;;;;;;;1.41;100.00;100197.47;4187580;28;20052;-71
2022/01/25 02:14:03;;;;;;;11.85;7.22;;;;;;;1.37;100.00;100186.28;4187914;28;20131;-71
2022/01/25 02:16:07;;;;;;;11.73;6.85;;;;;;;1.39;100.00;100194.19;4186725;28;20526;-71
2022/01/25 02:22:45;;;;;;;9.18;6.45;;;;;;;1.46;100.00;100188.44;4186810;28;20074;-71
2022/01/25 02:24:46;;;;;;;11.07;7.18;;;;;;;1.50;100.00;100189.53;4187840;28;20044;-71
2022/01/25 02:26:46;;;;;;;9.48;5.80;;;;;;;1.50;100.00;100184.91;4186810;28;20052;-71
2022/01/25 02:28:47;;;;;;;12.25;7.05;;;;;;;1.54;100.00;100182.44;4187372;28;20047;-71
2022/01/25 02:30:48;;;;;;;14.70;6.95;;;;;;;1.56;100.00;100189.22;4187488;28;20091;-71
2022/01/25 02:32:48;;;;;;;10.82;6.40;;;;;;;1.55;100.00;100184.88;4187870;28;20045;-71
2022/01/25 02:34:49;;;;;;;11.57;7.38;;;;;;;1.54;100.00;100179.69;4187213;28;20527;-71
2022/01/25 02:37:00;;;;;;;9.75;5.80;;;;;;;1.51;100.00;100178.34;4186727;28;20599;-71
2022/01/25 02:39:00;;;;;;;11.10;6.53;;;;;;;1.49;100.00;100177.81;4187530;28;20053;-71
2022/01/25 02:41:01;;;;;;;12.48;6.43;;;;;;;1.44;100.00;100177.00;4187047;28;20071;-71
2022/01/25 02:43:02;;;;;;;11.30;6.50;;;;;;;1.44;100.00;100174.28;4187551;28;20101;-71
2022/01/25 02:45:03;;;;;;;12.02;6.30;;;;;;;1.44;100.00;100169.63;4187340;28;20064;-71
2022/01/25 02:49:23;;;;;;;10.48;6.38;;;;;;;1.44;100.00;100161.44;4187840;28;20114;-71
2022/01/25 02:51:28;;;;;;;11.63;7.10;;;;;;;1.44;100.00;100161.44;4187076;28;20044;-71
2022/01/25 02:53:29;;;;;;;9.32;6.38;;;;;;;1.42;100.00;100160.09;4187248;28;20323;-72
2022/01/25 02:55:30;;;;;;;10.15;6.93;;;;;;;1.37;100.00;100150.81;4186733;28;20044;-71
2022/01/25 02:57:31;;;;;;;11.55;7.43;;;;;;;1.38;100.00;100159.81;4186431;28;20055;-71
2022/01/25 02:59:31;;;;;;;13.32;8.02;;;;;;;1.34;100.00;100156.84;4187219;28;20048;-71
2022/01/25 03:01:32;;;;;;;12.18;7.78;;;;;;;1.35;100.00;100163.94;4187075;28;20044;-71
2022/01/25 03:03:33;;;;;;;12.38;7.45;;;;;;;1.40;100.00;100160.34;4186926;28;20045;-71
2022/01/25 03:05:33;;;;;;;13.73;7.35;;;;;;;1.37;100.00;100159.00;4187198;28;20190;-71
2022/01/25 03:07:36;;;;;;;11.85;7.35;;;;;;;1.32;100.00;100148.09;4185656;28;20037;-71
2022/01/25 03:09:38;;;;;;;12.07;7.80;;;;;;;1.37;100.00;100158.19;4186362;28;20089;-71
2022/01/25 03:11:39;;;;;;;11.50;7.25;;;;;;;1.34;100.00;100151.38;4186133;28;20052;-71
2022/01/25 03:13:55;;;;;;;12.48;7.63;;;;;;;1.32;100.00;100150.00;4187442;28;20041;-71
2022/01/25 03:16:00;;;;;;;12.93;7.75;;;;;;;1.31;100.00;100145.66;4188199;28;20041;-71
2022/01/25 03:18:07;;;;;;;12.82;7.65;;;;;;;1.32;100.00;100147.28;4185659;28;20045;-73
2022/01/25 03:20:18;;;;;;;11.45;6.82;;;;;;;1.33;100.00;100141.56;4186613;28;20040;-71
2022/01/25 03:22:44;;;;;;;10.50;6.95;;;;;;;1.33;100.00;100143.50;4186705;28;20033;-71
2022/01/25 03:24:46;;;;;;;11.80;6.40;;;;;;;1.32;100.00;100153.56;4186245;28;20050;-71
2022/01/25 03:26:46;;;;;;;10.17;6.13;;;;;;;1.28;100.00;100143.50;4185961;28;20044;-71
2022/01/25 03:28:47;;;;;;;9.15;5.70;;;;;;;1.24;100.00;100145.97;4186918;28;20461;-71
2022/01/25 03:30:49;;;;;;;9.23;6.18;;;;;;;1.24;100.00;100140.50;4186544;28;20040;-71
2022/01/25 03:32:49;;;;;;;10.68;6.40;;;;;;;1.26;100.00;100148.41;4186568;28;20041;-71
2022/01/25 03:34:50;;;;;;;8.63;5.47;;;;;;;1.24;100.00;100140.50;4186947;28;20052;-71
2022/01/25 03:36:50;;;;;;;7.65;5.25;;;;;;;1.20;100.00;100144.88;4185598;28;20048;-71
2022/01/25 03:38:50;;;;;;;9.82;5.93;;;;;;;1.22;100.00;100148.13;4186217;28;20163;-71
2022/01/25 03:40:51;;;;;;;9.35;5.97;;;;;;;1.19;100.00;100136.97;4186545;28;20361;-71
2022/01/25 03:42:51;;;;;;;7.70;5.35;;;;;;;1.22;100.00;100150.03;4186383;28;20055;-71
2022/01/25 03:44:52;;;;;;;11.18;5.60;;;;;;;1.24;100.00;100154.16;4186739;28;20057;-71
2022/01/25 03:47:02;;;;;;;10.40;5.95;;;;;;;1.28;100.00;100149.75;4185880;28;20457;-71
2022/01/25 03:51:22;;;;;;;8.18;5.60;;;;;;;1.26;100.00;100153.88;4186615;28;20095;-71
2022/01/25 03:53:23;;;;;;;10.82;6.25;;;;;;;1.23;100.00;100160.66;4185581;28;20049;-71
2022/01/25 03:55:23;;;;;;;10.50;6.03;;;;;;;1.24;100.00;100158.75;4186329;28;20044;-71
2022/01/25 03:57:25;;;;;;;8.25;5.10;;;;;;;1.19;100.00;100156.06;4185761;28;20044;-71
2022/01/25 03:59:28;;;;;;;8.48;5.70;;;;;;;1.19;100.00;100154.13;4186306;28;20097;-71
2022/01/25 04:01:30;;;;;;;;;;;;;;;1.19;100.00;100159.59;4183005;28;20049;-71
2022/01/25 04:03:39;;;;;;;9.73;5.43;;;;;;;1.15;100.00;100146.78;4186723;28;19920;-71
2022/01/25 04:07:48;;;;;;;8.52;5.38;;;;;;;1.15;100.00;100144.88;4185698;28;20159;-71
2022/01/25 04:09:48;;;;;;;10.48;5.82;;;;;;;1.13;100.00;100145.16;4186139;28;20567;-72
2022/01/25 04:11:49;;;;;;;9.13;5.43;;;;;;;1.10;100.00;100142.16;4183695;28;20400;-71
2022/01/25 04:13:52;;;;;;;9.35;6.00;;;;;;;1.07;100.00;100140.78;4186038;28;20190;-71
2022/01/25 04:15:55;;;;;;;;;;;;;;;1.10;100.00;100151.16;4185496;28;20279;-71
2022/01/25 04:20:24;;;;;;;9.77;5.40;;;;;;;1.06;100.00;100139.16;4185808;28;20040;-71
2022/01/25 04:27:03;;;;;;;9.00;4.68;;;;;;;1.02;100.00;100134.53;4118411;28;20054;-71
2022/01/25 04:29:04;;;;;;;8.07;4.80;;;;;;;1.01;100.00;100141.09;4120865;28;20481;-71
2022/01/25 04:31:04;;;;;;;9.20;5.50;;;;;;;1.00;100.00;100139.47;4120188;28;20049;-71
2022/01/25 04:33:16;;;;;;;6.15;4.15;;;;;;;1.01;100.00;100136.44;4183207;28;20051;-71
2022/01/25 04:49:06;;;;;;;7.50;4.70;;;;;;;0.96;100.00;100127.47;4187731;28;20461;-71
2022/01/25 04:58:33;;;;;;;8.85;4.93;;;;;;;0.91;100.00;100124.72;4151255;28;20384;-71
2022/01/25 05:00:34;;;;;;;7.25;4.53;;;;;;;0.88;100.00;100131.56;4184881;28;20125;-71
2022/01/25 05:04:42;;;;;;;7.70;4.88;;;;;;;0.82;100.00;100133.44;4186091;28;20098;-71
2022/01/25 05:06:45;;;;;;;9.00;4.95;;;;;;;0.80;100.00;100129.38;4186281;28;20389;-71
2022/01/25 05:08:52;;;;;;;8.10;5.05;;;;;;;0.80;100.00;100129.38;4187672;28;20070;-71
2022/01/25 05:11:04;;;;;;;9.10;5.25;;;;;;;0.81;100.00;100137.28;4187095;28;20056;-71
2022/01/25 05:13:16;;;;;;;10.13;5.45;;;;;;;0.77;100.00;100136.19;4188182;28;20374;-71
2022/01/25 05:16:04;;;;;;;9.40;5.75;;;;;;;0.77;100.00;100128.03;4188697;28;20113;-71
2022/01/25 05:17:44;;;;;;;10.02;6.07;;;;;;;0.73;100.00;100123.38;4179180;28;20499;-71
2022/01/25 05:22:05;;;;;;;9.85;6.68;;;;;;;0.74;100.00;100127.72;4187997;28;20429;-71
2022/01/25 05:24:06;;;;;;;10.48;5.85;;;;;;;0.70;100.00;100132.09;4188043;28;20071;-71
2022/01/25 05:26:06;;;;;;;10.07;5.70;;;;;;;0.72;100.00;100127.19;4187812;28;20186;-71
2022/01/25 05:28:06;;;;;;;8.27;5.43;;;;;;;0.73;100.00;100126.91;4187229;28;20086;-71
2022/01/25 05:30:07;;;;;;;7.80;4.55;;;;;;;0.71;100.00;100128.28;4187107;28;20558;-71
2022/01/25 05:32:08;;;;;;;9.55;5.43;;;;;;;0.69;100.00;100136.75;4189236;28;20036;-71
2022/01/25 05:34:09;;;;;;;10.82;5.60;;;;;;;0.66;100.00;100137.25;4189585;28;20466;-71
2022/01/25 05:36:09;;;;;;;9.32;5.93;;;;;;;0.65;100.00;100143.00;4187180;28;20410;-71
2022/01/25 05:38:10;;;;;;;9.07;4.88;;;;;;;0.65;100.00;100143.81;4187783;28;20435;-71
2022/01/25 05:40:15;;;;;;;9.02;5.47;;;;;;;0.66;100.00;100155.53;4187465;28;20031;-71
2022/01/25 05:42:26;;;;;;;10.85;4.95;;;;;;;0.68;100.00;100154.19;4187495;28;20645;-71
2022/01/25 05:46:53;;;;;;;9.48;5.53;;;;;;;0.78;100.00;100151.44;4187259;28;20055;-71
2022/01/25 05:48:53;;;;;;;10.35;5.22;;;;;;;0.77;100.00;100149.81;4187926;28;20049;-71
2022/01/25 05:50:54;;;;;;;12.57;6.28;;;;;;;0.75;100.00;100145.75;4188049;28;20131;-71
2022/01/25 05:52:54;;;;;;;11.98;6.00;;;;;;;0.72;100.00;100141.63;4188295;28;20045;-71
2022/01/25 05:54:56;;;;;;;10.40;5.57;;;;;;;0.71;100.00;100144.63;4183603;28;20094;-71
2022/01/25 05:56:57;;;;;;;12.52;6.70;;;;;;;0.72;100.00;100151.72;4162144;28;20536;-71
2022/01/25 05:58:57;;;;;;;9.23;5.40;;;;;;;0.70;100.00;100137.56;4171876;28;20049;-71
2022/01/25 06:00:58;;;;;;;10.15;5.60;;;;;;;0.70;100.00;100129.38;4171471;28;20044;-71
2022/01/25 06:02:58;;;;;;;9.55;5.25;;;;;;;0.71;100.00;100139.19;4171403;28;20056;-71
2022/01/25 06:04:58;;;;;;;7.65;4.90;;;;;;;0.73;100.00;100137.00;4170748;28;20049;-71
2022/01/25 06:06:59;;;;;;;9.05;5.35;;;;;;;0.74;100.00;100152.25;4170805;28;20041;-71
2022/01/25 06:08:59;;;;;;;10.35;6.15;;;;;;;0.72;100.00;100147.09;4171522;28;20049;-71
2022/01/25 06:10:59;;;;;;;8.82;5.50;;;;;;;0.69;100.00;100131.28;4171291;28;20056;-71
2022/01/25 06:13:00;;;;;;;11.05;6.05;;;;;;;0.75;100.00;100140.28;4171357;28;20136;-71
2022/01/25 06:15:01;;;;;;;11.02;5.82;;;;;;;0.77;100.00;100144.38;4171256;28;20593;-71
2022/01/25 06:17:01;;;;;;;9.77;5.70;;;;;;;0.80;100.00;100145.72;4170388;28;20052;-71
2022/01/25 06:19:02;;;;;;;12.57;6.28;;;;;;;0.78;100.00;100148.72;4171064;28;20252;-71
2022/01/25 06:21:02;;;;;;;8.90;5.68;;;;;;;0.78;100.00;100142.47;4171072;28;20072;-71
2022/01/25 06:23:03;;;;;;;10.25;6.00;;;;;;;0.79;100.00;100144.91;4170886;28;20053;-71
2022/01/25 06:25:04;;;;;;;11.82;5.57;;;;;;;0.77;100.00;100138.91;4171066;28;20469;-71
2022/01/25 06:27:05;;;;;;;10.20;5.45;;;;;;;0.78;100.00;100139.75;4170502;28;20487;-71
2022/01/25 06:29:05;;;;;;;10.77;6.10;;;;;;;0.79;100.00;100136.72;4170633;28;20077;-71
2022/01/25 06:31:07;;;;;;;12.50;7.30;;;;;;;0.80;100.00;100134.81;4171041;28;20103;-71
2022/01/25 06:33:08;;;;;;;13.23;6.68;;;;;;;0.75;100.00;100126.66;4170685;28;20095;-71
2022/01/25 06:35:09;;;;;;;11.57;7.13;;;;;;;0.74;100.00;100133.19;4171083;28;20048;-71
2022/01/25 06:37:10;;;;;;;14.88;6.90;;;;;;;0.73;100.00;100137.00;4169854;28;20052;-71
2022/01/25 06:39:11;;;;;;;12.15;7.18;;;;;;;0.70;100.00;100129.38;4170902;28;20492;-71
2022/01/25 06:41:12;;;;;;;14.43;7.60;;;;;;;0.73;100.00;100137.00;4171172;28;20044;-71
2022/01/25 06:43:13;;;;;;;12.27;7.30;;;;;;;0.69;100.00;100131.28;4169955;28;20045;-71
2022/01/25 06:45:17;;;;;;;12.90;7.28;;;;;;;0.70;100.00;100141.09;4170887;28;20163;-71
2022/01/25 06:47:17;;;;;;;14.80;7.57;;;;;;;0.68;100.00;100137.03;4169498;28;20712;-71
2022/01/25 06:49:17;;;;;;;15.27;7.50;;;;;;;0.71;100.00;100141.91;4171084;28;20053;-71
2022/01/25 06:51:18;;;;;;;12.32;7.07;;;;;;;0.68;100.00;100132.38;4170669;28;20049;-71
2022/01/25 06:53:18;;;;;;;11.18;7.00;;;;;;;0.69;100.00;100134.00;4170571;28;20075;-71
2022/01/25 06:55:19;;;;;;;13.60;7.07;;;;;;;0.70;100.00;100148.44;4170946;28;20475;-71
2022/01/25 06:57:19;;;;;;;16.65;7.95;;;;;;;0.72;100.00;100147.09;4170079;28;20052;-71
2022/01/25 06:59:20;;;;;;;14.77;7.57;;;;;;;0.71;100.00;100145.44;4170738;28;20056;-71
2022/01/25 07:01:20;;;;;;;15.93;7.68;;;;;;;0.70;100.00;100137.56;4170581;28;20132;-71
2022/01/25 07:03:21;;;;;;;11.23;7.68;;;;;;;0.71;100.00;100141.91;4170349;28;20087;-71
2022/01/25 07:05:21;;;;;;;16.30;9.63;;;;;;;0.70;100.00;100137.56;4170437;28;20448;-71
2022/01/25 07:07:21;;;;;;;15.85;9.02;;;;;;;0.70;100.00;100148.44;4169839;28;20476;-71
2022/01/25 07:09:22;;;;;;;15.35;8.52;;;;;;;0.65;100.00;100137.53;4170716;28;20462;-71
2022/01/25 07:11:23;;;;;;;13.90;8.15;;;;;;;0.67;100.00;100146.28;4170378;28;20049;-71
2022/01/25 07:13:24;;;;;;;13.88;7.65;;;;;;;0.67;100.00;100154.47;4170148;28;20055;-71
2022/01/25 07:15:25;;;;;;;14.02;7.95;;;;;;;0.69;100.00;100152.28;4170360;28;20203;-71
2022/01/25 07:17:25;;;;;;;14.38;7.88;;;;;;;0.61;100.00;100150.91;4169416;28;20051;-71
2022/01/25 07:19:26;;;;;;;13.23;7.38;;;;;;;0.60;100.00;100154.72;4170465;28;20404;-71
2022/01/25 07:21:26;;;;;;;11.20;6.28;;;;;;;0.67;100.00;100154.47;4169824;28;20036;-71
2022/01/25 07:23:27;;;;;;;13.15;7.97;;;;;;;0.60;100.00;100157.44;4170150;28;20607;-71
2022/01/25 07:25:27;;;;;;;14.05;7.40;;;;;;;0.55;100.00;100155.53;4170188;28;20319;-71
2022/01/25 07:27:27;;;;;;;13.32;7.68;;;;;;;0.54;100.00;100159.34;4168025;28;20057;-71
2022/01/25 07:29:28;;;;;;;12.02;7.18;;;;;;;0.53;100.00;100159.63;4170495;28;20064;-71
2022/01/25 07:31:28;;;;;;;12.15;7.07;;;;;;;0.55;100.00;100158.25;4169612;28;20064;-71
2022/01/25 07:33:29;;;;;;;12.40;7.88;;;;;;;0.55;100.00;100166.41;4169867;28;20323;-71
2022/01/25 07:35:29;;;;;;;14.43;7.32;;;;;;;0.50;100.00;100158.25;4170147;28;20198;-71
2022/01/25 07:37:29;;;;;;;13.85;7.63;;;;;;;0.51;100.00;100161.78;4169314;28;20143;-71
2022/01/25 07:39:30;;;;;;;12.82;6.90;;;;;;;0.50;100.00;100163.69;4169856;28;20463;-71
2022/01/25 07:41:31;;;;;;;11.75;7.05;;;;;;;0.47;100.00;100161.50;4169718;28;20786;-71
2022/01/25 07:43:31;;;;;;;12.35;7.05;;;;;;;0.41;100.00;100153.59;4170107;28;20049;-71
2022/01/25 07:45:35;;;;;;;12.68;6.70;;;;;;;0.39;100.00;100147.59;4169596;28;20557;-71
2022/01/25 07:47:36;;;;;;;10.57;6.40;;;;;;;0.43;100.00;100149.53;4169134;28;20049;-71
2022/01/25 07:49:36;;;;;;;9.52;6.03;;;;;;;0.43;100.00;100157.69;4169637;28;20057;-71
2022/01/25 07:51:37;;;;;;;11.00;5.88;;;;;;;0.49;100.00;100164.75;4170160;28;20462;-71
2022/01/25 07:53:38;;;;;;;13.93;7.15;;;;;;;0.51;100.00;100153.63;4169378;28;20568;-71
2022/01/25 07:55:38;;;;;;;12.10;6.32;;;;;;;0.53;100.00;100159.63;4169649;28;20485;-71
2022/01/25 07:57:39;;;;;;;13.68;7.60;;;;;;;0.61;100.00;100156.34;4169282;28;20045;-71
2022/01/25 07:59:39;;;;;;;20.88;9.30;;;;;;;0.57;100.00;100152.53;4169355;28;20336;-71
2022/01/25 08:01:40;;;;;;;13.10;7.70;;;;;;;0.53;100.00;100160.44;4169605;28;20129;-71
2022/01/25 08:03:43;;;;;;;16.50;8.05;;;;;;;0.42;100.00;100155.25;4169969;28;20139;-71
2022/01/25 08:05:45;;;;;;;14.93;6.95;;;;;;;0.43;100.00;100151.44;4169818;28;20135;-71
2022/01/25 08:07:46;;;;;;;13.48;7.63;;;;;;;0.39;100.00;100150.31;4168725;28;20049;-71
2022/01/25 08:09:47;;;;;;;12.90;7.78;;;;;;;0.39;100.00;100150.31;4169765;28;20037;-71
2022/01/25 08:11:48;;;;;;;15.23;8.02;;;;;;;0.40;100.00;100155.50;4169522;28;20045;-71
2022/01/25 08:13:49;;;;;;;12.75;7.07;;;;;;;0.43;100.00;100159.59;4170158;28;20439;-71
2022/01/25 08:15:50;;;;;;;11.63;7.13;;;;;;;0.45;100.00;100165.59;4169069;28;20049;-71
2022/01/25 08:17:50;;;;;;;14.98;7.18;;;;;;;0.45;100.00;100165.59;4168859;28;20473;-71
2022/01/25 08:19:50;;;;;;;10.60;6.45;;;;;;;0.47;100.00;100172.41;4169683;28;20040;-71
2022/01/25 08:21:51;;;;;;;15.27;9.13;;;;;;;0.45;100.00;100171.03;4169505;28;20037;-71
2022/01/25 08:23:51;;;;;;;15.68;9.32;;;;;;;0.48;100.00;100173.22;4169829;28;20444;-71
2022/01/25 08:25:51;;;;;;;14.13;8.95;;;;;;;0.48;100.00;100176.75;4169563;28;20532;-71
2022/01/25 08:27:52;;;;;;;11.25;7.25;;;;;;;0.51;100.00;100180.88;4168716;28;20053;-71
2022/01/25 08:29:54;;;;;;;20.05;10.75;;;;;;;0.51;100.00;100175.41;4169135;28;20413;-71
2022/01/25 08:31:54;;;;;;;18.25;10.98;;;;;;;0.56;100.00;100178.94;4169399;28;20045;-71
2022/01/25 08:33:55;;;;;;;28.15;13.77;;;;;;;0.55;100.00;100177.31;4169531;28;20056;-71
2022/01/25 08:35:55;;;;;;;32.42;15.65;;;;;;;0.56;100.00;100172.69;4169339;28;20111;-71
2022/01/25 08:37:55;;;;;;;21.20;11.25;;;;;;;0.57;100.00;100182.47;4168700;28;20048;-71
2022/01/25 08:39:56;;;;;;;24.38;13.25;;;;;;;0.59;100.00;100180.31;4169899;28;20047;-71
2022/01/25 08:41:56;;;;;;;16.83;10.50;;;;;;;0.56;100.00;100178.94;4169143;28;20440;-71
2022/01/25 08:43:57;;;;;;;15.18;8.15;;;;;;;0.57;100.00;100186.03;4168995;28;20270;-71
2022/01/25 08:45:57;;;;;;;15.20;9.13;;;;;;;0.63;100.00;100183.31;4169491;28;20560;-71
2022/01/25 08:47:57;;;;;;;15.73;7.90;;;;;;;0.62;100.00;100187.94;4168993;28;20136;-71
2022/01/25 08:49:58;;;;;;;14.10;8.13;;;;;;;0.63;100.00;100191.47;4169249;28;20084;-71
2022/01/25 08:51:58;;;;;;;14.43;7.75;;;;;;;0.62;100.00;100187.13;4169309;28;20048;-71
2022/01/25 08:53:59;;;;;;;19.15;8.88;;;;;;;0.62;100.00;100190.66;4169299;28;20140;-71
2022/01/25 08:56:00;;;;;;;17.52;9.02;;;;;;;0.64;100.00;100201.28;4169197;28;20045;-72
2022/01/25 08:58:00;;;;;;;15.88;9.00;;;;;;;0.65;100.00;100205.66;4168192;28;20179;-71
2022/01/25 09:00:04;;;;;;;18.65;10.73;;;;;;;0.59;100.00;100201.31;4169029;28;20356;-71
2022/01/25 09:02:04;;;;;;;18.02;10.00;;;;;;;0.53;100.00;100184.94;4169280;28;20455;-71
2022/01/25 09:04:05;;;;;;;21.00;9.57;;;;;;;0.52;100.00;100190.66;4168985;28;20068;-71
2022/01/25 09:06:05;;;;;;;16.70;8.85;;;;;;;0.50;100.00;100187.41;4170703;28;20094;-71
2022/01/25 09:08:06;;;;;;;14.98;8.80;;;;;;;0.52;100.00;100194.19;4171949;28;20417;-71
2022/01/25 09:10:08;;;;;;;18.05;10.85;;;;;;;0.49;100.00;100197.44;4171864;28;20090;-71
2022/01/25 09:12:09;;;;;;;18.38;8.90;;;;;;;0.48;100.00;100200.44;4172138;28;20043;-71
2022/01/25 09:14:11;;;;;;;20.67;9.93;;;;;;;0.47;100.00;100196.09;4172015;28;20392;-71
2022/01/25 09:16:11;;;;;;;19.80;9.23;;;;;;;0.55;100.00;100201.00;4172454;28;20086;-71
2022/01/25 09:18:12;;;;;;;19.50;9.77;;;;;;;0.53;100.00;100189.56;4171554;28;20415;-71
2022/01/25 09:20:12;;;;;;;19.00;9.32;;;;;;;0.45;100.00;100198.28;4172065;28;20345;-71
2022/01/25 09:22:13;;;;;;;21.33;9.02;;;;;;;0.47;100.00;100204.25;4172231;28;20473;-71
2022/01/25 09:24:13;;;;;;;20.85;9.48;;;;;;;0.51;100.00;100206.19;4172137;28;20072;-71
2022/01/25 09:26:13;;;;;;;21.05;9.43;;;;;;;0.45;100.00;100203.72;4171956;28;20028;-71
2022/01/25 09:28:14;;;;;;;20.85;9.10;;;;;;;0.47;100.00;100213.25;4171070;28;20060;-71
2022/01/25 09:30:14;;;;;;;20.80;8.73;;;;;;;0.47;100.00;100204.25;4172255;28;20075;-71
2022/01/25 09:32:15;;;;;;;22.17;8.70;;;;;;;0.43;100.00;100195.81;4172236;28;20055;-71
2022/01/25 09:34:16;;;;;;;20.20;9.32;;;;;;;0.43;100.00;100204.00;4171855;28;20362;-71
2022/01/25 09:36:16;;;;;;;21.50;9.68;;;;;;;0.48;100.00;100214.88;4172118;28;20522;-71
2022/01/25 09:38:17;;;;;;;20.23;10.27;;;;;;;0.40;100.00;100199.06;4170655;28;20262;-71
2022/01/25 09:40:20;;;;;;;17.90;9.63;;;;;;;0.41;100.00;100205.31;4171418;28;20478;-71
2022/01/25 09:42:21;;;;;;;19.73;9.30;;;;;;;0.43;100.00;100201.28;4171535;28;20074;-71
2022/01/25 09:44:23;;;;;;;18.52;8.82;;;;;;;0.45;100.00;100211.88;4171736;28;20060;-71
2022/01/25 09:46:23;;;;;;;21.73;10.00;;;;;;;0.44;100.00;100211.06;4171560;28;20068;-71
2022/01/25 09:48:24;;;;;;;18.55;8.63;;;;;;;0.42;100.00;100207.00;4170943;28;20055;-71
2022/01/25 09:50:24;;;;;;;21.38;10.38;;;;;;;0.36;100.00;100211.59;4172070;28;20041;-71
2022/01/25 09:52:27;;;;;;;22.98;9.90;;;;;;;0.38;100.00;100208.59;4171750;28;20037;-71
2022/01/25 09:54:31;;;;;;;18.60;9.05;;;;;;;0.38;100.00;100209.41;4171482;28;20045;-71
2022/01/25 09:56:33;;;;;;;21.23;10.68;;;;;;;0.36;100.00;100210.78;4170392;28;20144;-71
2022/01/25 09:58:34;;;;;;;16.80;8.23;;;;;;;0.38;100.00;100214.03;4171551;28;20112;-72
2022/01/25 10:00:36;;;;;;;19.02;9.27;;;;;;;0.39;100.00;100205.59;4171722;28;20439;-71
2022/01/25 10:05:16;;;;;;;16.50;8.40;;;;;;;0.47;100.00;100215.97;4171481;28;20056;-71
2022/01/25 10:07:28;;;;;;;25.67;9.02;;;;;;;0.49;100.00;100205.63;4171009;28;20053;-71
2022/01/25 10:09:29;;;;;;;16.07;7.83;;;;;;;0.50;100.00;100203.75;4171312;28;20507;-71
2022/01/25 10:11:30;;;;;;;19.77;8.35;;;;;;;0.53;100.00;100198.56;4171214;28;20147;-71
2022/01/25 10:13:34;;;;;;;17.75;7.90;;;;;;;0.55;100.00;100203.72;4171062;28;20367;-71
2022/01/25 10:15:35;;;;;;;16.50;7.75;;;;;;;0.51;100.00;100202.66;4170746;28;20052;-71
2022/01/25 10:17:37;;;;;;;16.08;8.13;;;;;;;0.52;100.00;100199.66;4169488;28;20362;-71
2022/01/25 10:19:41;;;;;;;15.10;8.00;;;;;;;0.48;100.00;100203.97;4171554;28;20053;-71
2022/01/25 10:21:44;;;;;;;18.08;8.55;;;;;;;0.44;100.00;100202.09;4171445;28;20365;-71
2022/01/25 10:24:04;;;;;;;17.52;8.80;;;;;;;0.37;100.00;100194.16;4171093;28;20173;-71
2022/01/25 10:26:05;;;;;;;17.77;7.93;;;;;;;0.43;100.00;100201.28;4169767;28;20045;-71
2022/01/25 10:28:13;;;;;;;20.60;10.80;;;;;;;0.44;100.00;100202.91;4170744;28;20036;-72
2022/01/25 10:30:14;;;;;;;28.58;13.90;;;;;;;0.38;100.00;100201.25;4170946;28;20461;-71
2022/01/25 10:32:15;;;;;;;24.52;11.63;;;;;;;0.42;100.00;100210.53;4171304;28;20517;-71
2022/01/25 10:34:20;;;;;;;18.83;8.70;;;;;;;0.40;100.00;100204.50;4170831;28;20492;-71
2022/01/25 10:36:22;;;;;;;16.38;8.75;;;;;;;0.36;100.00;100199.88;4170710;28;20133;-71
2022/01/25 10:38:32;;;;;;;21.67;9.32;;;;;;;0.39;100.00;100200.16;4170124;28;20041;-71
2022/01/25 10:40:38;;;;;;;18.27;8.85;;;;;;;0.41;100.00;100189.81;4169757;28;20043;-71
2022/01/25 10:42:38;;;;;;;17.70;8.27;;;;;;;0.47;100.00;100196.91;4170786;28;20114;-71
2022/01/25 10:44:51;;;;;;;22.75;10.90;;;;;;;0.50;100.00;100195.56;4170962;28;20053;-71
2022/01/25 10:46:51;;;;;;;15.55;7.60;;;;;;;0.50;100.00;100184.69;4170112;28;20422;-71
2022/01/25 10:49:04;;;;;;;16.42;8.20;;;;;;;0.57;100.00;100198.81;4171031;28;20055;-71
2022/01/25 10:51:08;;;;;;;16.83;8.93;;;;;;;0.54;100.00;100199.38;4170556;28;20060;-71
2022/01/25 10:53:17;;;;;;;17.05;9.25;;;;;;;0.54;100.00;100197.47;4170741;28;20044;-71
2022/01/25 10:55:17;;;;;;;15.82;7.25;;;;;;;0.56;100.00;100202.63;4170163;28;20068;-71
2022/01/25 10:57:19;;;;;;;16.48;7.93;;;;;;;0.57;100.00;100196.91;4170242;28;20504;-71
2022/01/25 10:59:28;;;;;;;15.43;8.23;;;;;;;0.55;100.00;100203.72;4170603;28;20044;-71
2022/01/25 11:01:32;;;;;;;15.90;7.78;;;;;;;0.54;100.00;100205.63;4170625;28;20045;-71
2022/01/25 11:03:41;;;;;;;21.80;10.80;;;;;;;0.52;100.00;100193.38;4170204;28;20084;-71